sensor_id;sensor_type;location;lat;lon;timestamp;P1;durP1;ratioP1;P2;durP2;ratioP2
21564;SDS011;10943;48.738;9.320;2022-10-16T00:01:42;6.80;;;2.60;;
21564;SDS011;10943;48.738;9.320;2022-10-16T00:04:10;8.40;;;3.00;;
21564;SDS011;10943;48.738;9.320;2022-10-16T00:06:37;9.00;;;2.70;;
21564;SDS011;10943;48.738;9.320;2022-10-16T00:09:05;10.18;;;2.92;;
21564;SDS011;10943;48.738;9.320;2022-10-16T00:11:34;9.63;;;2.70;;
21564;SDS011;10943;48.738;9.320;2022-10-16T00:14:07;6.65;;;3.10;;
21564;SDS011;10943;48.738;9.320;2022-10-16T00:16:41;11.38;;;2.90;;
21564;SDS011;10943;48.738;9.320;2022-10-16T00:19:10;6.38;;;3.35;;
21564;SDS011;10943;48.738;9.320;2022-10-16T00:21:41;6.80;;;2.97;;
21564;SDS011;10943;48.738;9.320;2022-10-16T00:24:28;9.05;;;2.40;;
21564;SDS011;10943;48.738;9.320;2022-10-16T00:26:55;5.53;;;2.17;;
21564;SDS011;10943;48.738;9.320;2022-10-16T00:29:22;10.00;;;2.78;;
21564;SDS011;10943;48.738;9.320;2022-10-16T00:31:50;7.75;;;2.30;;
21564;SDS011;10943;48.738;9.320;2022-10-16T00:34:17;5.13;;;2.80;;
21564;SDS011;10943;48.738;9.320;2022-10-16T00:36:44;8.70;;;2.75;;
21564;SDS011;10943;48.738;9.320;2022-10-16T00:39:12;9.23;;;3.88;;
21564;SDS011;10943;48.738;9.320;2022-10-16T00:41:39;6.05;;;2.80;;
21564;SDS011;10943;48.738;9.320;2022-10-16T00:47:29;6.47;;;3.20;;
21564;SDS011;10943;48.738;9.320;2022-10-16T00:52:56;6.82;;;2.92;;
21564;SDS011;10943;48.738;9.320;2022-10-16T00:55:27;6.60;;;2.50;;
21564;SDS011;10943;48.738;9.320;2022-10-16T00:57:56;10.52;;;3.00;;
21564;SDS011;10943;48.738;9.320;2022-10-16T01:00:25;7.30;;;2.83;;
21564;SDS011;10943;48.738;9.320;2022-10-16T01:02:57;6.75;;;2.75;;
21564;SDS011;10943;48.738;9.320;2022-10-16T01:05:49;6.90;;;3.40;;
21564;SDS011;10943;48.738;9.320;2022-10-16T01:15:35;7.28;;;2.88;;
21564;SDS011;10943;48.738;9.320;2022-10-16T01:18:18;7.50;;;2.67;;
21564;SDS011;10943;48.738;9.320;2022-10-16T01:21:10;9.07;;;3.00;;
21564;SDS011;10943;48.738;9.320;2022-10-16T01:24:06;9.07;;;3.15;;
21564;SDS011;10943;48.738;9.320;2022-10-16T01:27:11;6.53;;;2.75;;
21564;SDS011;10943;48.738;9.320;2022-10-16T01:32:46;9.05;;;3.10;;
21564;SDS011;10943;48.738;9.320;2022-10-16T01:38:20;8.35;;;2.95;;
21564;SDS011;10943;48.738;9.320;2022-10-16T01:41:01;6.57;;;3.08;;
21564;SDS011;10943;48.738;9.320;2022-10-16T01:43:58;9.32;;;3.20;;
21564;SDS011;10943;48.738;9.320;2022-10-16T01:46:47;6.18;;;3.15;;
21564;SDS011;10943;48.738;9.320;2022-10-16T01:49:20;10.15;;;3.10;;
21564;SDS011;10943;48.738;9.320;2022-10-16T01:51:56;8.88;;;2.70;;
21564;SDS011;10943;48.738;9.320;2022-10-16T01:54:32;10.02;;;2.97;;
21564;SDS011;10943;48.738;9.320;2022-10-16T01:57:04;9.52;;;2.97;;
21564;SDS011;10943;48.738;9.320;2022-10-16T01:59:38;6.03;;;2.50;;
21564;SDS011;10943;48.738;9.320;2022-10-16T02:02:14;9.50;;;2.78;;
21564;SDS011;10943;48.738;9.320;2022-10-16T02:04:47;5.68;;;3.00;;
21564;SDS011;10943;48.738;9.320;2022-10-16T02:07:24;9.23;;;2.97;;
21564;SDS011;10943;48.738;9.320;2022-10-16T02:09:51;7.40;;;2.72;;
21564;SDS011;10943;48.738;9.320;2022-10-16T02:12:22;8.55;;;2.50;;
21564;SDS011;10943;48.738;9.320;2022-10-16T02:15:00;7.97;;;2.50;;
21564;SDS011;10943;48.738;9.320;2022-10-16T02:17:29;11.30;;;2.40;;
21564;SDS011;10943;48.738;9.320;2022-10-16T02:19:57;10.30;;;3.03;;
21564;SDS011;10943;48.738;9.320;2022-10-16T02:25:05;10.57;;;2.63;;
21564;SDS011;10943;48.738;9.320;2022-10-16T02:27:47;8.40;;;2.60;;
21564;SDS011;10943;48.738;9.320;2022-10-16T02:30:47;8.70;;;2.60;;
21564;SDS011;10943;48.738;9.320;2022-10-16T02:33:30;8.50;;;2.67;;
21564;SDS011;10943;48.738;9.320;2022-10-16T02:36:01;4.80;;;2.25;;
21564;SDS011;10943;48.738;9.320;2022-10-16T02:38:28;7.38;;;2.85;;
21564;SDS011;10943;48.738;9.320;2022-10-16T02:40:57;7.35;;;2.50;;
21564;SDS011;10943;48.738;9.320;2022-10-16T02:43:26;5.53;;;3.10;;
21564;SDS011;10943;48.738;9.320;2022-10-16T02:45:53;7.97;;;2.83;;
21564;SDS011;10943;48.738;9.320;2022-10-16T02:48:20;8.45;;;2.70;;
21564;SDS011;10943;48.738;9.320;2022-10-16T02:50:48;8.30;;;2.72;;
21564;SDS011;10943;48.738;9.320;2022-10-16T02:53:15;7.68;;;2.90;;
21564;SDS011;10943;48.738;9.320;2022-10-16T02:55:42;7.22;;;2.50;;
21564;SDS011;10943;48.738;9.320;2022-10-16T02:58:10;8.95;;;2.40;;
21564;SDS011;10943;48.738;9.320;2022-10-16T03:00:38;5.78;;;2.47;;
21564;SDS011;10943;48.738;9.320;2022-10-16T03:03:05;10.07;;;2.80;;
21564;SDS011;10943;48.738;9.320;2022-10-16T03:05:33;7.10;;;2.42;;
21564;SDS011;10943;48.738;9.320;2022-10-16T03:08:00;9.40;;;2.80;;
21564;SDS011;10943;48.738;9.320;2022-10-16T03:10:27;8.85;;;2.60;;
21564;SDS011;10943;48.738;9.320;2022-10-16T03:12:55;7.43;;;3.10;;
21564;SDS011;10943;48.738;9.320;2022-10-16T03:15:24;6.47;;;2.50;;
21564;SDS011;10943;48.738;9.320;2022-10-16T03:17:57;9.35;;;3.03;;
21564;SDS011;10943;48.738;9.320;2022-10-16T03:20:25;8.23;;;2.30;;
21564;SDS011;10943;48.738;9.320;2022-10-16T03:22:53;8.10;;;2.30;;
21564;SDS011;10943;48.738;9.320;2022-10-16T03:25:21;6.50;;;2.60;;
21564;SDS011;10943;48.738;9.320;2022-10-16T03:27:48;7.40;;;2.08;;
21564;SDS011;10943;48.738;9.320;2022-10-16T03:30:16;8.27;;;2.10;;
21564;SDS011;10943;48.738;9.320;2022-10-16T03:32:43;6.95;;;2.38;;
21564;SDS011;10943;48.738;9.320;2022-10-16T03:35:11;8.15;;;2.50;;
21564;SDS011;10943;48.738;9.320;2022-10-16T03:37:39;6.25;;;2.45;;
21564;SDS011;10943;48.738;9.320;2022-10-16T03:40:06;5.40;;;2.53;;
21564;SDS011;10943;48.738;9.320;2022-10-16T03:42:35;5.75;;;2.20;;
21564;SDS011;10943;48.738;9.320;2022-10-16T03:45:02;7.30;;;2.70;;
21564;SDS011;10943;48.738;9.320;2022-10-16T03:47:31;9.77;;;2.58;;
21564;SDS011;10943;48.738;9.320;2022-10-16T03:49:59;5.30;;;2.35;;
21564;SDS011;10943;48.738;9.320;2022-10-16T03:52:27;5.78;;;2.63;;
21564;SDS011;10943;48.738;9.320;2022-10-16T03:54:54;5.28;;;2.30;;
21564;SDS011;10943;48.738;9.320;2022-10-16T03:57:22;10.13;;;2.63;;
21564;SDS011;10943;48.738;9.320;2022-10-16T03:59:50;7.45;;;2.53;;
21564;SDS011;10943;48.738;9.320;2022-10-16T04:02:17;7.72;;;2.17;;
21564;SDS011;10943;48.738;9.320;2022-10-16T04:04:44;4.78;;;2.22;;
21564;SDS011;10943;48.738;9.320;2022-10-16T04:07:11;5.93;;;2.30;;
21564;SDS011;10943;48.738;9.320;2022-10-16T04:09:38;6.25;;;2.47;;
21564;SDS011;10943;48.738;9.320;2022-10-16T04:12:06;7.03;;;2.53;;
21564;SDS011;10943;48.738;9.320;2022-10-16T04:14:34;8.65;;;2.65;;
21564;SDS011;10943;48.738;9.320;2022-10-16T04:17:01;7.50;;;2.40;;
21564;SDS011;10943;48.738;9.320;2022-10-16T04:19:28;5.25;;;2.35;;
21564;SDS011;10943;48.738;9.320;2022-10-16T04:21:55;7.97;;;2.40;;
21564;SDS011;10943;48.738;9.320;2022-10-16T04:24:23;5.43;;;2.30;;
21564;SDS011;10943;48.738;9.320;2022-10-16T04:26:50;7.32;;;2.50;;
21564;SDS011;10943;48.738;9.320;2022-10-16T04:29:17;7.72;;;2.53;;
21564;SDS011;10943;48.738;9.320;2022-10-16T04:31:45;6.07;;;2.42;;
21564;SDS011;10943;48.738;9.320;2022-10-16T04:34:13;5.82;;;2.38;;
21564;SDS011;10943;48.738;9.320;2022-10-16T04:36:40;6.32;;;2.17;;
21564;SDS011;10943;48.738;9.320;2022-10-16T04:39:07;5.90;;;2.30;;
21564;SDS011;10943;48.738;9.320;2022-10-16T04:41:35;4.80;;;2.63;;
21564;SDS011;10943;48.738;9.320;2022-10-16T04:44:03;7.30;;;2.50;;
21564;SDS011;10943;48.738;9.320;2022-10-16T04:46:31;7.38;;;2.58;;
21564;SDS011;10943;48.738;9.320;2022-10-16T04:49:05;8.25;;;2.92;;
21564;SDS011;10943;48.738;9.320;2022-10-16T04:51:32;6.22;;;2.70;;
21564;SDS011;10943;48.738;9.320;2022-10-16T04:53:59;4.78;;;2.83;;
21564;SDS011;10943;48.738;9.320;2022-10-16T04:56:27;6.70;;;2.58;;
21564;SDS011;10943;48.738;9.320;2022-10-16T04:58:54;6.25;;;2.80;;
21564;SDS011;10943;48.738;9.320;2022-10-16T05:01:22;7.53;;;2.88;;
21564;SDS011;10943;48.738;9.320;2022-10-16T05:03:49;9.52;;;2.35;;
21564;SDS011;10943;48.738;9.320;2022-10-16T05:06:17;6.53;;;2.47;;
21564;SDS011;10943;48.738;9.320;2022-10-16T05:08:44;9.55;;;2.78;;
21564;SDS011;10943;48.738;9.320;2022-10-16T05:11:12;5.13;;;2.13;;
21564;SDS011;10943;48.738;9.320;2022-10-16T05:13:39;5.47;;;2.45;;
21564;SDS011;10943;48.738;9.320;2022-10-16T05:16:06;8.60;;;2.65;;
21564;SDS011;10943;48.738;9.320;2022-10-16T05:18:34;5.70;;;2.70;;
21564;SDS011;10943;48.738;9.320;2022-10-16T05:21:01;5.85;;;2.53;;
21564;SDS011;10943;48.738;9.320;2022-10-16T05:23:29;5.07;;;2.50;;
21564;SDS011;10943;48.738;9.320;2022-10-16T05:25:56;9.73;;;2.80;;
21564;SDS011;10943;48.738;9.320;2022-10-16T05:28:27;4.90;;;2.42;;
21564;SDS011;10943;48.738;9.320;2022-10-16T05:30:57;6.25;;;2.67;;
21564;SDS011;10943;48.738;9.320;2022-10-16T05:33:25;7.45;;;2.15;;
21564;SDS011;10943;48.738;9.320;2022-10-16T05:35:53;6.65;;;2.63;;
21564;SDS011;10943;48.738;9.320;2022-10-16T05:38:20;7.38;;;2.53;;
21564;SDS011;10943;48.738;9.320;2022-10-16T05:40:51;8.18;;;2.80;;
21564;SDS011;10943;48.738;9.320;2022-10-16T05:43:19;6.03;;;2.40;;
21564;SDS011;10943;48.738;9.320;2022-10-16T05:46:00;9.48;;;2.50;;
21564;SDS011;10943;48.738;9.320;2022-10-16T05:48:31;5.15;;;2.60;;
21564;SDS011;10943;48.738;9.320;2022-10-16T05:51:00;5.50;;;2.33;;
21564;SDS011;10943;48.738;9.320;2022-10-16T05:53:34;6.43;;;2.22;;
21564;SDS011;10943;48.738;9.320;2022-10-16T05:56:04;8.80;;;2.50;;
21564;SDS011;10943;48.738;9.320;2022-10-16T05:58:37;5.05;;;2.30;;
21564;SDS011;10943;48.738;9.320;2022-10-16T06:01:09;7.85;;;2.33;;
21564;SDS011;10943;48.738;9.320;2022-10-16T06:03:42;7.38;;;2.22;;
21564;SDS011;10943;48.738;9.320;2022-10-16T06:06:14;6.63;;;2.35;;
21564;SDS011;10943;48.738;9.320;2022-10-16T06:08:47;6.03;;;2.47;;
21564;SDS011;10943;48.738;9.320;2022-10-16T06:11:17;6.13;;;2.40;;
21564;SDS011;10943;48.738;9.320;2022-10-16T06:13:53;5.32;;;2.50;;
21564;SDS011;10943;48.738;9.320;2022-10-16T06:16:27;6.57;;;2.60;;
21564;SDS011;10943;48.738;9.320;2022-10-16T06:18:56;5.22;;;2.70;;
21564;SDS011;10943;48.738;9.320;2022-10-16T06:21:27;10.80;;;2.58;;
21564;SDS011;10943;48.738;9.320;2022-10-16T06:23:56;5.47;;;2.60;;
21564;SDS011;10943;48.738;9.320;2022-10-16T06:26:26;13.95;;;3.05;;
21564;SDS011;10943;48.738;9.320;2022-10-16T06:28:57;9.90;;;2.90;;
21564;SDS011;10943;48.738;9.320;2022-10-16T06:31:26;5.93;;;2.58;;
21564;SDS011;10943;48.738;9.320;2022-10-16T06:33:57;10.10;;;2.63;;
21564;SDS011;10943;48.738;9.320;2022-10-16T06:36:26;6.43;;;2.10;;
21564;SDS011;10943;48.738;9.320;2022-10-16T06:38:53;11.35;;;3.05;;
21564;SDS011;10943;48.738;9.320;2022-10-16T06:41:21;12.07;;;2.65;;
21564;SDS011;10943;48.738;9.320;2022-10-16T06:43:50;13.95;;;3.42;;
21564;SDS011;10943;48.738;9.320;2022-10-16T06:46:20;8.85;;;2.65;;
21564;SDS011;10943;48.738;9.320;2022-10-16T06:48:50;6.78;;;2.33;;
21564;SDS011;10943;48.738;9.320;2022-10-16T06:51:20;6.03;;;2.75;;
21564;SDS011;10943;48.738;9.320;2022-10-16T06:53:54;7.70;;;2.53;;
21564;SDS011;10943;48.738;9.320;2022-10-16T06:56:30;11.77;;;2.40;;
21564;SDS011;10943;48.738;9.320;2022-10-16T06:59:00;8.60;;;2.08;;
21564;SDS011;10943;48.738;9.320;2022-10-16T07:01:30;5.82;;;1.95;;
21564;SDS011;10943;48.738;9.320;2022-10-16T07:04:00;6.15;;;2.22;;
21564;SDS011;10943;48.738;9.320;2022-10-16T07:06:30;5.70;;;2.00;;
21564;SDS011;10943;48.738;9.320;2022-10-16T07:09:01;7.57;;;4.28;;
21564;SDS011;10943;48.738;9.320;2022-10-16T07:11:38;8.82;;;2.30;;
21564;SDS011;10943;48.738;9.320;2022-10-16T07:14:18;9.30;;;1.90;;
21564;SDS011;10943;48.738;9.320;2022-10-16T07:16:47;9.02;;;2.03;;
21564;SDS011;10943;48.738;9.320;2022-10-16T07:19:15;7.65;;;1.88;;
21564;SDS011;10943;48.738;9.320;2022-10-16T07:21:44;8.48;;;1.90;;
21564;SDS011;10943;48.738;9.320;2022-10-16T07:24:26;9.15;;;2.08;;
21564;SDS011;10943;48.738;9.320;2022-10-16T07:26:54;8.27;;;1.95;;
21564;SDS011;10943;48.738;9.320;2022-10-16T07:29:21;7.20;;;2.25;;
21564;SDS011;10943;48.738;9.320;2022-10-16T07:31:48;9.60;;;2.13;;
21564;SDS011;10943;48.738;9.320;2022-10-16T07:34:17;5.53;;;1.75;;
21564;SDS011;10943;48.738;9.320;2022-10-16T07:36:48;8.57;;;2.00;;
21564;SDS011;10943;48.738;9.320;2022-10-16T07:39:17;7.80;;;1.90;;
21564;SDS011;10943;48.738;9.320;2022-10-16T07:41:44;4.68;;;2.00;;
21564;SDS011;10943;48.738;9.320;2022-10-16T07:44:15;6.22;;;1.90;;
21564;SDS011;10943;48.738;9.320;2022-10-16T07:46:45;5.57;;;1.70;;
21564;SDS011;10943;48.738;9.320;2022-10-16T07:49:16;9.23;;;1.98;;
21564;SDS011;10943;48.738;9.320;2022-10-16T07:51:44;4.75;;;1.77;;
21564;SDS011;10943;48.738;9.320;2022-10-16T07:54:11;5.82;;;1.92;;
21564;SDS011;10943;48.738;9.320;2022-10-16T07:56:39;6.90;;;2.10;;
21564;SDS011;10943;48.738;9.320;2022-10-16T07:59:09;9.15;;;2.00;;
21564;SDS011;10943;48.738;9.320;2022-10-16T08:01:37;11.25;;;2.10;;
21564;SDS011;10943;48.738;9.320;2022-10-16T08:04:05;8.65;;;2.13;;
21564;SDS011;10943;48.738;9.320;2022-10-16T08:06:34;8.48;;;2.65;;
21564;SDS011;10943;48.738;9.320;2022-10-16T08:09:05;6.00;;;1.83;;
21564;SDS011;10943;48.738;9.320;2022-10-16T08:11:34;5.20;;;2.03;;
21564;SDS011;10943;48.738;9.320;2022-10-16T08:14:01;5.93;;;1.80;;
21564;SDS011;10943;48.738;9.320;2022-10-16T08:16:29;6.78;;;1.88;;
21564;SDS011;10943;48.738;9.320;2022-10-16T08:18:56;4.78;;;1.65;;
21564;SDS011;10943;48.738;9.320;2022-10-16T08:21:23;6.30;;;1.75;;
21564;SDS011;10943;48.738;9.320;2022-10-16T08:23:52;13.27;;;1.90;;
21564;SDS011;10943;48.738;9.320;2022-10-16T08:26:24;8.55;;;1.70;;
21564;SDS011;10943;48.738;9.320;2022-10-16T08:28:54;5.47;;;1.55;;
21564;SDS011;10943;48.738;9.320;2022-10-16T08:31:23;5.75;;;1.52;;
21564;SDS011;10943;48.738;9.320;2022-10-16T08:33:51;6.18;;;2.00;;
21564;SDS011;10943;48.738;9.320;2022-10-16T08:36:19;8.15;;;1.92;;
21564;SDS011;10943;48.738;9.320;2022-10-16T08:38:52;5.35;;;1.50;;
21564;SDS011;10943;48.738;9.320;2022-10-16T08:50:29;4.95;;;1.70;;
21564;SDS011;10943;48.738;9.320;2022-10-16T08:52:59;7.90;;;1.80;;
21564;SDS011;10943;48.738;9.320;2022-10-16T08:58:12;9.02;;;2.10;;
21564;SDS011;10943;48.738;9.320;2022-10-16T09:00:51;7.18;;;1.85;;
21564;SDS011;10943;48.738;9.320;2022-10-16T09:06:42;7.00;;;1.65;;
21564;SDS011;10943;48.738;9.320;2022-10-16T09:12:39;8.95;;;2.20;;
21564;SDS011;10943;48.738;9.320;2022-10-16T09:21:33;7.22;;;1.77;;
21564;SDS011;10943;48.738;9.320;2022-10-16T09:24:27;8.18;;;1.70;;
21564;SDS011;10943;48.738;9.320;2022-10-16T09:27:00;6.43;;;1.30;;
21564;SDS011;10943;48.738;9.320;2022-10-16T09:29:37;5.70;;;1.35;;
21564;SDS011;10943;48.738;9.320;2022-10-16T09:32:10;5.47;;;1.48;;
21564;SDS011;10943;48.738;9.320;2022-10-16T09:34:48;5.47;;;1.52;;
21564;SDS011;10943;48.738;9.320;2022-10-16T09:37:37;5.93;;;1.45;;
21564;SDS011;10943;48.738;9.320;2022-10-16T09:40:12;12.07;;;1.45;;
21564;SDS011;10943;48.738;9.320;2022-10-16T09:43:25;3.42;;;1.10;;
21564;SDS011;10943;48.738;9.320;2022-10-16T09:46:19;3.95;;;1.40;;
21564;SDS011;10943;48.738;9.320;2022-10-16T09:48:59;8.30;;;1.70;;
21564;SDS011;10943;48.738;9.320;2022-10-16T09:51:33;8.55;;;1.88;;
21564;SDS011;10943;48.738;9.320;2022-10-16T09:54:20;5.75;;;1.30;;
21564;SDS011;10943;48.738;9.320;2022-10-16T09:56:48;6.43;;;1.30;;
21564;SDS011;10943;48.738;9.320;2022-10-16T09:59:20;4.53;;;1.33;;
21564;SDS011;10943;48.738;9.320;2022-10-16T10:01:56;6.28;;;1.13;;
21564;SDS011;10943;48.738;9.320;2022-10-16T10:04:41;3.28;;;1.10;;
21564;SDS011;10943;48.738;9.320;2022-10-16T10:07:25;3.63;;;1.10;;
21564;SDS011;10943;48.738;9.320;2022-10-16T10:10:03;4.53;;;1.33;;
21564;SDS011;10943;48.738;9.320;2022-10-16T10:12:39;4.50;;;1.17;;
21564;SDS011;10943;48.738;9.320;2022-10-16T10:15:12;3.30;;;1.50;;
21564;SDS011;10943;48.738;9.320;2022-10-16T10:17:51;5.45;;;1.17;;
21564;SDS011;10943;48.738;9.320;2022-10-16T10:20:30;4.55;;;1.08;;
21564;SDS011;10943;48.738;9.320;2022-10-16T10:23:25;5.20;;;1.23;;
21564;SDS011;10943;48.738;9.320;2022-10-16T10:26:08;3.10;;;1.05;;
21564;SDS011;10943;48.738;9.320;2022-10-16T10:39:14;3.97;;;1.38;;
21564;SDS011;10943;48.738;9.320;2022-10-16T10:42:16;4.40;;;1.30;;
21564;SDS011;10943;48.738;9.320;2022-10-16T10:46:02;4.32;;;1.10;;
21564;SDS011;10943;48.738;9.320;2022-10-16T10:49:07;4.70;;;1.13;;
21564;SDS011;10943;48.738;9.320;2022-10-16T10:52:06;6.32;;;1.25;;
21564;SDS011;10943;48.738;9.320;2022-10-16T10:55:37;4.45;;;1.27;;
21564;SDS011;10943;48.738;9.320;2022-10-16T11:05:27;4.38;;;0.90;;
21564;SDS011;10943;48.738;9.320;2022-10-16T11:13:21;6.63;;;1.20;;
21564;SDS011;10943;48.738;9.320;2022-10-16T11:17:00;2.50;;;0.95;;
21564;SDS011;10943;48.738;9.320;2022-10-16T11:20:53;3.78;;;1.05;;
21564;SDS011;10943;48.738;9.320;2022-10-16T11:27:27;6.15;;;1.00;;
21564;SDS011;10943;48.738;9.320;2022-10-16T11:30:30;5.53;;;0.90;;
21564;SDS011;10943;48.738;9.320;2022-10-16T11:34:01;4.55;;;1.10;;
21564;SDS011;10943;48.738;9.320;2022-10-16T11:38:27;8.65;;;1.13;;
21564;SDS011;10943;48.738;9.320;2022-10-16T11:42:25;4.57;;;1.70;;
21564;SDS011;10943;48.738;9.320;2022-10-16T12:00:30;5.47;;;1.00;;
21564;SDS011;10943;48.738;9.320;2022-10-16T12:04:42;3.35;;;0.90;;
21564;SDS011;10943;48.738;9.320;2022-10-16T12:08:41;3.35;;;1.10;;
21564;SDS011;10943;48.738;9.320;2022-10-16T12:12:37;4.32;;;0.90;;
21564;SDS011;10943;48.738;9.320;2022-10-16T12:16:32;4.32;;;1.20;;
21564;SDS011;10943;48.738;9.320;2022-10-16T12:23:01;2.72;;;0.93;;
21564;SDS011;10943;48.738;9.320;2022-10-16T12:26:34;4.38;;;0.80;;
21564;SDS011;10943;48.738;9.320;2022-10-16T12:29:54;2.95;;;1.13;;
21564;SDS011;10943;48.738;9.320;2022-10-16T12:33:31;3.17;;;1.08;;
21564;SDS011;10943;48.738;9.320;2022-10-16T12:46:59;3.20;;;1.10;;
21564;SDS011;10943;48.738;9.320;2022-10-16T12:50:00;3.67;;;1.25;;
21564;SDS011;10943;48.738;9.320;2022-10-16T12:52:40;2.33;;;0.88;;
21564;SDS011;10943;48.738;9.320;2022-10-16T13:21:54;6.25;;;1.40;;
21564;SDS011;10943;48.738;9.320;2022-10-16T13:28:04;3.60;;;1.05;;
21564;SDS011;10943;48.738;9.320;2022-10-16T13:31:04;4.85;;;1.17;;
21564;SDS011;10943;48.738;9.320;2022-10-16T13:34:02;2.65;;;1.08;;
21564;SDS011;10943;48.738;9.320;2022-10-16T13:37:15;4.35;;;1.08;;
21564;SDS011;10943;48.738;9.320;2022-10-16T13:40:37;4.07;;;1.10;;
21564;SDS011;10943;48.738;9.320;2022-10-16T13:44:01;3.42;;;1.00;;
21564;SDS011;10943;48.738;9.320;2022-10-16T13:47:18;5.43;;;1.08;;
21564;SDS011;10943;48.738;9.320;2022-10-16T13:50:11;4.65;;;1.40;;
21564;SDS011;10943;48.738;9.320;2022-10-16T13:52:46;3.88;;;1.60;;
21564;SDS011;10943;48.738;9.320;2022-10-16T13:55:17;5.20;;;1.50;;
21564;SDS011;10943;48.738;9.320;2022-10-16T13:58:08;3.42;;;1.40;;
21564;SDS011;10943;48.738;9.320;2022-10-16T14:00:59;4.45;;;1.10;;
21564;SDS011;10943;48.738;9.320;2022-10-16T14:03:47;10.45;;;1.48;;
21564;SDS011;10943;48.738;9.320;2022-10-16T14:06:43;3.58;;;0.90;;
21564;SDS011;10943;48.738;9.320;2022-10-16T14:10:05;3.03;;;1.08;;
21564;SDS011;10943;48.738;9.320;2022-10-16T14:17:00;2.20;;;0.90;;
21564;SDS011;10943;48.738;9.320;2022-10-16T14:19:59;3.45;;;0.80;;
21564;SDS011;10943;48.738;9.320;2022-10-16T14:27:20;3.83;;;1.15;;
21564;SDS011;10943;48.738;9.320;2022-10-16T14:39:14;7.03;;;1.42;;
21564;SDS011;10943;48.738;9.320;2022-10-16T14:46:13;4.03;;;1.40;;
21564;SDS011;10943;48.738;9.320;2022-10-16T14:49:37;5.03;;;1.75;;
21564;SDS011;10943;48.738;9.320;2022-10-16T14:52:45;4.55;;;1.80;;
21564;SDS011;10943;48.738;9.320;2022-10-16T14:55:36;5.63;;;1.80;;
21564;SDS011;10943;48.738;9.320;2022-10-16T14:59:13;4.22;;;2.03;;
21564;SDS011;10943;48.738;9.320;2022-10-16T15:02:35;6.15;;;2.30;;
21564;SDS011;10943;48.738;9.320;2022-10-16T15:05:22;5.15;;;2.33;;
21564;SDS011;10943;48.738;9.320;2022-10-16T15:08:13;6.18;;;2.40;;
21564;SDS011;10943;48.738;9.320;2022-10-16T15:11:08;4.25;;;1.90;;
21564;SDS011;10943;48.738;9.320;2022-10-16T15:13:46;4.63;;;2.05;;
21564;SDS011;10943;48.738;9.320;2022-10-16T15:16:15;4.65;;;1.75;;
21564;SDS011;10943;48.738;9.320;2022-10-16T15:18:46;5.18;;;1.73;;
21564;SDS011;10943;48.738;9.320;2022-10-16T15:21:34;6.53;;;3.55;;
21564;SDS011;10943;48.738;9.320;2022-10-16T15:24:05;8.27;;;2.78;;
21564;SDS011;10943;48.738;9.320;2022-10-16T15:26:46;6.43;;;2.60;;
21564;SDS011;10943;48.738;9.320;2022-10-16T15:29:17;7.75;;;3.30;;
21564;SDS011;10943;48.738;9.320;2022-10-16T15:31:48;7.10;;;3.72;;
21564;SDS011;10943;48.738;9.320;2022-10-16T15:34:16;7.10;;;2.00;;
21564;SDS011;10943;48.738;9.320;2022-10-16T15:36:55;5.80;;;2.28;;
21564;SDS011;10943;48.738;9.320;2022-10-16T15:39:30;4.75;;;2.28;;
21564;SDS011;10943;48.738;9.320;2022-10-16T15:41:58;6.72;;;3.30;;
21564;SDS011;10943;48.738;9.320;2022-10-16T15:44:29;9.40;;;4.78;;
21564;SDS011;10943;48.738;9.320;2022-10-16T15:46:57;14.75;;;7.93;;
21564;SDS011;10943;48.738;9.320;2022-10-16T15:49:25;11.75;;;5.63;;
21564;SDS011;10943;48.738;9.320;2022-10-16T15:51:59;12.40;;;4.75;;
21564;SDS011;10943;48.738;9.320;2022-10-16T15:54:30;13.85;;;4.78;;
21564;SDS011;10943;48.738;9.320;2022-10-16T15:56:58;10.23;;;4.10;;
21564;SDS011;10943;48.738;9.320;2022-10-16T15:59:26;8.00;;;2.63;;
21564;SDS011;10943;48.738;9.320;2022-10-16T16:02:04;8.18;;;2.38;;
21564;SDS011;10943;48.738;9.320;2022-10-16T16:04:33;8.23;;;3.45;;
21564;SDS011;10943;48.738;9.320;2022-10-16T16:07:10;6.68;;;3.15;;
21564;SDS011;10943;48.738;9.320;2022-10-16T16:09:39;7.82;;;3.00;;
21564;SDS011;10943;48.738;9.320;2022-10-16T16:12:09;8.48;;;3.47;;
21564;SDS011;10943;48.738;9.320;2022-10-16T16:14:40;9.10;;;3.38;;
21564;SDS011;10943;48.738;9.320;2022-10-16T16:17:09;4.90;;;2.83;;
21564;SDS011;10943;48.738;9.320;2022-10-16T16:19:37;9.60;;;3.40;;
21564;SDS011;10943;48.738;9.320;2022-10-16T16:22:05;5.85;;;3.60;;
21564;SDS011;10943;48.738;9.320;2022-10-16T16:24:38;6.30;;;3.00;;
21564;SDS011;10943;48.738;9.320;2022-10-16T16:27:05;7.35;;;3.10;;
21564;SDS011;10943;48.738;9.320;2022-10-16T16:29:34;6.13;;;3.05;;
21564;SDS011;10943;48.738;9.320;2022-10-16T16:32:05;9.30;;;2.95;;
21564;SDS011;10943;48.738;9.320;2022-10-16T16:34:33;7.68;;;3.40;;
21564;SDS011;10943;48.738;9.320;2022-10-16T16:37:03;7.30;;;3.13;;
21564;SDS011;10943;48.738;9.320;2022-10-16T16:39:31;7.75;;;2.90;;
21564;SDS011;10943;48.738;9.320;2022-10-16T16:41:59;5.95;;;2.85;;
21564;SDS011;10943;48.738;9.320;2022-10-16T16:44:29;6.97;;;2.78;;
21564;SDS011;10943;48.738;9.320;2022-10-16T16:46:57;9.73;;;2.75;;
21564;SDS011;10943;48.738;9.320;2022-10-16T16:49:24;9.63;;;3.00;;
21564;SDS011;10943;48.738;9.320;2022-10-16T16:54:48;7.45;;;3.20;;
21564;SDS011;10943;48.738;9.320;2022-10-16T16:57:33;5.85;;;3.22;;
21564;SDS011;10943;48.738;9.320;2022-10-16T17:00:03;6.40;;;3.00;;
21564;SDS011;10943;48.738;9.320;2022-10-16T17:02:40;8.63;;;3.13;;
21564;SDS011;10943;48.738;9.320;2022-10-16T17:05:24;7.22;;;3.30;;
21564;SDS011;10943;48.738;9.320;2022-10-16T17:08:19;6.65;;;3.60;;
21564;SDS011;10943;48.738;9.320;2022-10-16T17:11:15;9.90;;;3.95;;
21564;SDS011;10943;48.738;9.320;2022-10-16T17:14:18;8.60;;;3.60;;
21564;SDS011;10943;48.738;9.320;2022-10-16T17:17:09;9.73;;;3.83;;
21564;SDS011;10943;48.738;9.320;2022-10-16T17:19:48;8.80;;;3.78;;
21564;SDS011;10943;48.738;9.320;2022-10-16T17:22:19;8.60;;;4.45;;
21564;SDS011;10943;48.738;9.320;2022-10-16T17:25:20;12.48;;;4.40;;
21564;SDS011;10943;48.738;9.320;2022-10-16T17:28:03;11.48;;;5.35;;
21564;SDS011;10943;48.738;9.320;2022-10-16T17:30:57;11.88;;;4.82;;
21564;SDS011;10943;48.738;9.320;2022-10-16T17:34:01;11.98;;;4.85;;
21564;SDS011;10943;48.738;9.320;2022-10-16T17:36:59;9.85;;;4.88;;
21564;SDS011;10943;48.738;9.320;2022-10-16T17:39:52;10.82;;;5.03;;
21564;SDS011;10943;48.738;9.320;2022-10-16T17:42:20;14.35;;;7.90;;
21564;SDS011;10943;48.738;9.320;2022-10-16T17:44:52;14.90;;;7.00;;
21564;SDS011;10943;48.738;9.320;2022-10-16T17:50:45;8.20;;;5.57;;
21564;SDS011;10943;48.738;9.320;2022-10-16T17:53:46;11.02;;;4.10;;
21564;SDS011;10943;48.738;9.320;2022-10-16T17:56:58;9.52;;;4.20;;
21564;SDS011;10943;48.738;9.320;2022-10-16T17:59:44;10.32;;;4.20;;
21564;SDS011;10943;48.738;9.320;2022-10-16T18:02:13;12.50;;;3.90;;
21564;SDS011;10943;48.738;9.320;2022-10-16T18:08:00;10.57;;;5.00;;
21564;SDS011;10943;48.738;9.320;2022-10-16T18:10:44;10.10;;;4.20;;
21564;SDS011;10943;48.738;9.320;2022-10-16T18:13:33;9.00;;;4.40;;
21564;SDS011;10943;48.738;9.320;2022-10-16T18:16:05;9.82;;;4.93;;
21564;SDS011;10943;48.738;9.320;2022-10-16T18:18:38;10.77;;;4.53;;
21564;SDS011;10943;48.738;9.320;2022-10-16T18:21:45;14.68;;;4.03;;
21564;SDS011;10943;48.738;9.320;2022-10-16T18:24:25;11.63;;;4.78;;
21564;SDS011;10943;48.738;9.320;2022-10-16T18:27:00;15.73;;;4.47;;
21564;SDS011;10943;48.738;9.320;2022-10-16T18:29:29;11.40;;;4.43;;
21564;SDS011;10943;48.738;9.320;2022-10-16T18:32:05;9.88;;;4.47;;
21564;SDS011;10943;48.738;9.320;2022-10-16T18:37:26;8.80;;;4.20;;
21564;SDS011;10943;48.738;9.320;2022-10-16T18:40:10;10.57;;;4.20;;
21564;SDS011;10943;48.738;9.320;2022-10-16T18:46:12;9.80;;;4.53;;